createdAt,value
2022-11-16T00:01:15.114Z,99549.69
2022-11-16T00:03:43.261Z,99546.63
2022-11-16T00:06:11.425Z,99534.59
2022-11-16T00:08:41.145Z,99553.66
2022-11-16T00:11:12.817Z,99548.97
2022-11-16T00:13:41.071Z,99553.50
2022-11-16T00:16:09.229Z,99552.38
2022-11-16T00:18:37.179Z,99553.00
2022-11-16T00:21:06.375Z,99548.28
2022-11-16T00:23:36.257Z,99543.75
2022-11-16T00:26:05.858Z,99543.09
2022-11-16T00:28:35.385Z,99532.84
2022-11-16T00:31:05.048Z,99546.94
2022-11-16T00:33:33.026Z,99545.09
2022-11-16T00:36:01.997Z,99532.25
2022-11-16T00:38:30.099Z,99534.69
2022-11-16T00:40:58.146Z,99521.88
2022-11-16T00:43:26.075Z,99514.84
2022-11-16T00:45:55.429Z,99521.19
2022-11-16T00:48:23.419Z,99518.31
2022-11-16T00:50:51.373Z,99513.41
2022-11-16T00:53:19.947Z,99507.84
2022-11-16T00:55:48.493Z,99511.72
2022-11-16T00:58:16.568Z,99482.63
2022-11-16T01:00:44.524Z,99504.91
2022-11-16T01:03:13.871Z,99499.69
2022-11-16T01:05:41.819Z,99489.31
2022-11-16T01:08:09.762Z,99494.34
2022-11-16T01:10:39.477Z,99476.56
2022-11-16T01:13:06.389Z,99458.84
2022-11-16T01:15:34.301Z,99452.25
2022-11-16T01:18:02.203Z,99451.97
2022-11-16T01:20:31.526Z,99455.28
2022-11-16T01:22:59.485Z,99464.72
2022-11-16T01:25:27.470Z,99462.69
2022-11-16T01:27:55.429Z,99451.31
2022-11-16T01:30:23.359Z,99450.13
2022-11-16T01:32:51.458Z,99445.59
2022-11-16T01:35:19.720Z,99435.56
2022-11-16T01:37:49.081Z,99435.09
2022-11-16T01:40:16.990Z,99446.63
2022-11-16T01:42:44.948Z,99438.59
2022-11-16T01:45:20.395Z,99412.56
2022-11-16T01:47:48.357Z,99425.91
2022-11-16T01:50:18.256Z,99418.88
2022-11-16T01:52:52.472Z,99417.28
2022-11-16T01:55:20.632Z,99423.66
2022-11-16T01:57:48.590Z,99429.38
2022-11-16T02:00:17.681Z,99426.50
2022-11-16T02:02:45.692Z,99423.66
2022-11-16T02:05:14.208Z,99427.34
2022-11-16T02:08:11.029Z,99423.81
2022-11-16T02:10:47.899Z,99433.78
2022-11-16T02:13:22.622Z,99422.94
2022-11-16T02:15:53.023Z,99424.84
2022-11-16T02:18:25.868Z,99422.81
2022-11-16T02:21:01.765Z,99415.78
2022-11-16T02:23:55.987Z,99411.78
2022-11-16T02:26:33.707Z,99391.34
2022-11-16T02:29:17.433Z,99392.91
2022-11-16T02:31:47.410Z,99386.72
2022-11-16T02:34:15.471Z,99387.91
2022-11-16T02:36:43.447Z,99393.75
2022-11-16T02:39:13.317Z,99373.38
2022-11-16T02:41:42.354Z,99385.03
2022-11-16T02:44:13.266Z,99395.47
2022-11-16T02:46:42.809Z,99391.81
2022-11-16T02:49:11.911Z,99391.22
2022-11-16T02:51:40.061Z,99402.50
2022-11-16T02:54:12.784Z,99387.63
2022-11-16T02:56:44.970Z,99390.00
2022-11-16T02:59:17.634Z,99399.09
2022-11-16T03:01:47.729Z,99395.59
2022-11-16T03:04:17.491Z,99384.56
2022-11-16T03:06:45.481Z,99396.16
2022-11-16T03:09:14.461Z,99383.47
2022-11-16T03:12:06.564Z,99381.97
2022-11-16T03:14:37.276Z,99372.09
2022-11-16T03:17:06.906Z,99374.81
2022-11-16T03:19:36.543Z,99372.81
2022-11-16T03:22:07.498Z,99368.16
2022-11-16T03:24:35.437Z,99369.84
2022-11-16T03:27:06.375Z,99364.81
2022-11-16T03:29:37.669Z,99360.13
2022-11-16T03:32:06.678Z,99357.13
2022-11-16T03:34:34.735Z,99350.06
2022-11-16T03:37:02.672Z,99341.06
2022-11-16T03:39:32.420Z,99346.38
2022-11-16T03:42:00.985Z,99332.50
2022-11-16T03:44:28.912Z,99318.25
2022-11-16T03:46:58.453Z,99319.22
2022-11-16T03:49:26.439Z,99308.81
2022-11-16T03:51:54.377Z,99309.28
2022-11-16T03:54:22.411Z,99308.78
2022-11-16T03:56:50.343Z,99308.63
2022-11-16T03:59:18.293Z,99311.59
2022-11-16T04:01:46.243Z,99320.09
2022-11-16T04:04:29.676Z,99324.13
2022-11-16T04:07:14.719Z,99331.13
2022-11-16T04:09:59.872Z,99323.75
2022-11-16T04:12:44.571Z,99326.09
2022-11-16T04:15:30.083Z,99321.38
2022-11-16T04:18:15.544Z,99316.38
2022-11-16T04:21:02.414Z,99311.31
2022-11-16T04:23:47.771Z,99301.25
2022-11-16T04:26:15.684Z,99302.94
2022-11-16T04:28:42.726Z,99298.91
2022-11-16T04:31:27.801Z,99296.84
2022-11-16T04:34:13.277Z,99287.84
2022-11-16T04:36:59.861Z,99289.50
2022-11-16T04:39:27.793Z,99278.81
2022-11-16T04:42:13.359Z,99287.50
2022-11-16T04:44:58.540Z,99285.81
2022-11-16T04:47:26.457Z,99277.31
2022-11-16T04:49:54.391Z,99274.13
2022-11-16T04:52:23.644Z,99271.63
2022-11-16T04:54:51.554Z,99274.47
2022-11-16T04:57:19.483Z,99269.50
2022-11-16T04:59:47.388Z,99279.72
2022-11-16T05:02:15.416Z,99267.50
2022-11-16T05:04:43.957Z,99267.34
2022-11-16T05:07:12.804Z,99265.22
2022-11-16T05:09:43.143Z,99268.41
2022-11-16T05:12:11.365Z,99265.06
2022-11-16T05:14:39.285Z,99266.97
2022-11-16T05:17:07.205Z,99269.28
2022-11-16T05:20:07.115Z,99268.97
2022-11-16T05:22:35.176Z,99280.38
2022-11-16T05:25:04.737Z,99271.41
2022-11-16T05:27:32.746Z,99273.09
2022-11-16T05:30:00.682Z,99265.09
2022-11-16T05:32:29.192Z,99243.47
2022-11-16T05:34:57.219Z,99264.00
2022-11-16T05:37:26.686Z,99268.84
2022-11-16T05:39:54.681Z,99262.19
2022-11-16T05:42:24.113Z,99268.72
2022-11-16T05:44:52.044Z,99261.19
2022-11-16T05:47:19.967Z,99259.22
2022-11-16T05:49:47.869Z,99265.59
2022-11-16T05:52:15.794Z,99256.88
2022-11-16T05:54:43.678Z,99253.91
2022-11-16T05:57:11.643Z,99253.41
2022-11-16T05:59:40.973Z,99247.22
2022-11-16T06:02:08.936Z,99252.25
2022-11-16T06:04:36.866Z,99253.56
2022-11-16T06:07:04.864Z,99250.69
2022-11-16T06:09:32.817Z,99250.19
2022-11-16T06:12:00.748Z,99249.19
2022-11-16T06:14:28.677Z,99252.53
2022-11-16T06:16:58.016Z,99254.84
2022-11-16T06:19:31.040Z,99252.81
2022-11-16T06:22:00.200Z,99251.44
2022-11-16T06:24:28.134Z,99241.34
2022-11-16T06:26:56.056Z,99238.13
2022-11-16T06:29:23.997Z,99236.72
2022-11-16T06:31:51.924Z,99232.69
2022-11-16T06:34:21.232Z,99239.47
2022-11-16T06:36:49.369Z,99232.34
2022-11-16T06:39:17.285Z,99236.59
2022-11-16T06:41:45.266Z,99238.56
2022-11-16T06:44:13.201Z,99232.69
2022-11-16T06:46:41.110Z,99235.78
2022-11-16T06:49:09.239Z,99237.69
2022-11-16T06:51:38.513Z,99231.94
2022-11-16T06:56:52.586Z,99226.03
2022-11-16T06:59:20.495Z,99227.41
2022-11-16T07:01:48.511Z,99225.41
2022-11-16T07:04:16.470Z,99226.59
2022-11-16T07:06:45.968Z,99220.66
2022-11-16T07:09:15.297Z,99214.94
2022-11-16T07:11:43.342Z,99211.97
2022-11-16T07:14:11.876Z,99208.53
2022-11-16T07:16:39.774Z,99214.59
2022-11-16T07:19:07.822Z,99201.66
2022-11-16T07:21:35.754Z,99202.56
2022-11-16T07:24:05.285Z,99206.78
2022-11-16T07:26:33.749Z,99196.09
2022-11-16T07:29:01.742Z,99197.22
2022-11-16T07:31:29.702Z,99192.94
2022-11-16T07:33:57.644Z,99202.09
2022-11-16T07:36:26.032Z,99198.91
2022-11-16T07:38:54.305Z,99181.66
2022-11-16T07:41:23.566Z,99180.88
2022-11-16T07:43:53.379Z,99180.00
2022-11-16T07:49:14.973Z,99170.00
2022-11-16T07:51:42.931Z,99174.06
2022-11-16T07:54:13.035Z,99173.53
2022-11-16T07:56:42.334Z,99173.16
2022-11-16T07:59:10.289Z,99170.47
2022-11-16T08:01:38.323Z,99164.50
2022-11-16T08:04:06.263Z,99174.16
2022-11-16T08:06:34.219Z,99171.69
2022-11-16T08:09:02.190Z,99175.84
2022-11-16T08:11:30.125Z,99179.13
2022-11-16T08:13:59.449Z,99180.25
2022-11-16T08:16:27.353Z,99164.84
2022-11-16T08:18:55.299Z,99159.34
2022-11-16T08:21:23.264Z,99162.50
2022-11-16T08:23:55.351Z,99156.94
2022-11-16T08:26:26.165Z,99151.59
2022-11-16T08:28:54.183Z,99149.38
2022-11-16T08:31:25.117Z,99150.22
2022-11-16T08:33:53.115Z,99147.31
2022-11-16T08:36:21.185Z,99144.47
2022-11-16T08:38:49.711Z,99137.41
2022-11-16T08:41:17.802Z,99137.00
2022-11-16T08:43:47.241Z,99130.81
2022-11-16T08:46:15.525Z,99127.31
2022-11-16T08:48:46.006Z,99125.03
2022-11-16T08:54:00.212Z,99118.78
2022-11-16T08:56:30.099Z,99114.41
2022-11-16T08:58:59.125Z,99120.00
2022-11-16T09:01:28.392Z,99113.72
2022-11-16T09:03:57.825Z,99118.66
2022-11-16T09:06:26.572Z,99110.06
2022-11-16T09:08:54.548Z,99102.44
2022-11-16T09:11:23.650Z,99092.16
2022-11-16T09:16:37.987Z,99084.63
2022-11-16T09:19:07.306Z,99087.53
2022-11-16T09:21:36.470Z,99083.72
2022-11-16T09:24:04.563Z,99079.25
2022-11-16T09:26:32.604Z,99074.72
2022-11-16T09:29:01.179Z,99071.41
2022-11-16T09:31:29.531Z,99064.94
2022-11-16T09:33:58.806Z,99071.69
2022-11-16T09:36:28.552Z,99068.22
2022-11-16T09:39:23.837Z,99065.63
2022-11-16T09:41:53.969Z,99058.38
2022-11-16T09:44:33.357Z,99051.63
2022-11-16T09:47:01.491Z,99049.22
2022-11-16T09:49:31.240Z,99039.22
2022-11-16T09:54:46.983Z,99029.34
2022-11-16T09:57:16.556Z,99025.19
2022-11-16T09:59:45.502Z,99020.38
2022-11-16T10:02:19.357Z,99017.16
2022-11-16T10:04:56.699Z,99013.03
2022-11-16T10:07:29.044Z,99008.41
2022-11-16T10:09:57.100Z,99000.25
2022-11-16T10:12:26.068Z,98989.88
2022-11-16T10:15:15.516Z,98979.44
2022-11-16T10:18:04.670Z,98973.28
2022-11-16T10:20:48.925Z,98974.34
2022-11-16T10:23:22.902Z,98971.53
2022-11-16T10:25:54.374Z,98972.47
2022-11-16T10:28:42.053Z,98969.25
2022-11-16T10:31:14.775Z,98965.63
2022-11-16T10:33:42.949Z,98967.31
2022-11-16T10:36:12.674Z,98954.91
2022-11-16T10:38:42.106Z,98959.81
2022-11-16T10:41:18.859Z,98960.25
2022-11-16T10:43:46.846Z,98959.44
2022-11-16T10:46:16.743Z,98955.91
2022-11-16T10:48:49.225Z,98945.59
2022-11-16T10:51:17.151Z,98945.19
2022-11-16T10:53:46.453Z,98942.31
2022-11-16T10:56:20.560Z,98939.91
2022-11-16T10:58:56.006Z,98932.63
2022-11-16T11:01:30.118Z,98924.84
2022-11-16T11:03:58.490Z,98928.38
2022-11-16T11:06:26.863Z,98932.06
2022-11-16T11:08:56.269Z,98923.00
2022-11-16T11:11:50.347Z,98927.00
2022-11-16T11:14:18.270Z,98928.38
2022-11-16T11:16:46.181Z,98921.09
2022-11-16T11:19:21.132Z,98914.75
2022-11-16T11:21:50.175Z,98916.63
2022-11-16T11:27:07.474Z,98907.34
2022-11-16T11:29:37.576Z,98900.69
2022-11-16T11:32:06.388Z,98885.34
2022-11-16T11:34:36.289Z,98893.94
2022-11-16T11:37:04.555Z,98885.75
2022-11-16T11:42:22.712Z,98890.44
2022-11-16T11:44:57.609Z,98879.75
2022-11-16T11:47:58.604Z,98875.47
2022-11-16T11:50:28.337Z,98879.31
2022-11-16T11:53:02.140Z,98862.81
2022-11-16T11:55:31.521Z,98872.66
2022-11-16T11:57:59.498Z,98865.97
2022-11-16T12:00:27.494Z,98870.59
2022-11-16T12:03:41.385Z,98863.88
2022-11-16T12:06:11.243Z,98862.84
2022-11-16T12:08:50.100Z,98852.16
2022-11-16T12:11:23.138Z,98856.53
2022-11-16T12:14:01.597Z,98855.50
2022-11-16T12:16:33.102Z,98852.69
2022-11-16T12:19:26.393Z,98853.28
2022-11-16T12:22:00.275Z,98846.53
2022-11-16T12:24:39.482Z,98846.19
2022-11-16T12:27:14.281Z,98838.19
2022-11-16T12:29:45.629Z,98840.19
2022-11-16T12:32:26.015Z,98836.88
2022-11-16T12:35:12.169Z,98830.31
2022-11-16T12:37:43.601Z,98829.34
2022-11-16T12:40:23.886Z,98831.38
2022-11-16T12:42:54.308Z,98829.25
2022-11-16T12:45:33.373Z,98814.97
2022-11-16T12:48:18.710Z,98816.03
2022-11-16T12:50:51.559Z,98815.56
2022-11-16T12:53:33.419Z,98812.63
2022-11-16T12:56:03.538Z,98806.63
2022-11-16T12:58:40.599Z,98807.13
2022-11-16T13:01:11.310Z,98792.16
2022-11-16T13:03:42.685Z,98798.75
2022-11-16T13:06:13.434Z,98798.75
2022-11-16T13:08:51.183Z,98811.34
2022-11-16T13:11:22.517Z,98803.22
2022-11-16T13:13:53.856Z,98809.47
2022-11-16T13:16:22.248Z,98810.53
2022-11-16T13:18:50.222Z,98805.09
2022-11-16T13:21:26.755Z,98801.84
2022-11-16T13:24:01.538Z,98800.19
2022-11-16T13:26:31.334Z,98801.47
2022-11-16T13:29:03.106Z,98808.19
2022-11-16T13:31:34.580Z,98807.03
2022-11-16T13:34:02.889Z,98806.84
2022-11-16T13:36:47.703Z,98807.91
2022-11-16T13:39:21.931Z,98804.50
2022-11-16T13:41:50.798Z,98806.03
2022-11-16T13:44:30.355Z,98778.94
2022-11-16T13:47:04.352Z,98789.78
2022-11-16T13:49:34.263Z,98802.25
2022-11-16T13:52:21.982Z,98802.13
2022-11-16T13:54:52.604Z,98792.69
2022-11-16T13:57:23.704Z,98793.41
2022-11-16T13:59:57.265Z,98787.63
2022-11-16T14:02:30.483Z,98790.44
2022-11-16T14:04:59.599Z,98788.19
2022-11-16T14:07:33.186Z,98788.28
2022-11-16T14:10:01.258Z,98776.00
2022-11-16T14:12:59.255Z,98790.25
2022-11-16T14:15:30.074Z,98788.69
2022-11-16T14:18:00.029Z,98791.72
2022-11-16T14:21:00.246Z,98788.94
2022-11-16T14:23:37.127Z,98783.69
2022-11-16T14:26:11.865Z,98788.75
2022-11-16T14:28:44.638Z,98789.03
2022-11-16T14:31:24.631Z,98786.81
2022-11-16T14:33:53.622Z,98772.84
2022-11-16T14:36:36.197Z,98779.28
2022-11-16T14:39:16.521Z,98780.19
2022-11-16T14:41:45.021Z,98769.69
2022-11-16T14:44:12.961Z,98770.34
2022-11-16T14:46:42.273Z,98765.72
2022-11-16T14:49:12.119Z,98753.59
2022-11-16T14:51:42.722Z,98756.97
2022-11-16T14:54:14.312Z,98759.19
2022-11-16T14:56:56.746Z,98762.81
2022-11-16T14:59:24.780Z,98760.25
2022-11-16T15:01:54.170Z,98752.44
2022-11-16T15:04:22.508Z,98764.53
2022-11-16T15:06:51.401Z,98760.28
2022-11-16T15:09:22.418Z,98764.72
2022-11-16T15:12:08.308Z,98762.69
2022-11-16T15:14:39.390Z,98747.91
2022-11-16T15:17:08.736Z,98764.44
2022-11-16T15:19:36.665Z,98760.13
2022-11-16T15:22:05.322Z,98761.97
2022-11-16T15:24:33.989Z,98754.56
2022-11-16T15:27:11.656Z,98758.91
2022-11-16T15:29:39.592Z,98763.47
2022-11-16T15:32:14.273Z,98765.34
2022-11-16T15:34:42.191Z,98771.97
2022-11-16T15:37:12.358Z,98773.19
2022-11-16T15:39:40.261Z,98768.19
2022-11-16T15:42:09.802Z,98778.97
2022-11-16T15:44:38.850Z,98774.03
2022-11-16T15:47:06.848Z,98775.28
2022-11-16T15:49:37.410Z,98779.03
2022-11-16T15:52:05.738Z,98778.22
2022-11-16T15:54:54.581Z,98773.03
2022-11-16T15:57:23.285Z,98780.94
2022-11-16T15:59:54.549Z,98777.44
2022-11-16T16:02:23.493Z,98785.28
2022-11-16T16:04:52.799Z,98776.41
2022-11-16T16:07:38.530Z,98779.75
2022-11-16T16:10:14.064Z,98772.69
2022-11-16T16:12:48.236Z,98768.34
2022-11-16T16:15:23.911Z,98775.81
2022-11-16T16:17:51.884Z,98774.16
2022-11-16T16:20:21.899Z,98767.53
2022-11-16T16:22:49.814Z,98762.97
2022-11-16T16:25:28.406Z,98765.25
2022-11-16T16:27:56.343Z,98755.94
2022-11-16T16:30:24.450Z,98752.00
2022-11-16T16:32:52.956Z,98741.84
2022-11-16T16:35:22.986Z,98740.59
2022-11-16T16:37:51.847Z,98743.91
2022-11-16T16:40:19.954Z,98744.31
2022-11-16T16:42:48.704Z,98747.22
2022-11-16T16:45:18.065Z,98740.97
2022-11-16T16:47:45.980Z,98748.00
2022-11-16T16:50:13.910Z,98742.63
2022-11-16T16:52:43.196Z,98746.34
2022-11-16T16:55:11.121Z,98747.84
2022-11-16T16:57:39.026Z,98749.50
2022-11-16T17:00:08.048Z,98747.22
2022-11-16T17:02:37.401Z,98741.41
2022-11-16T17:05:05.725Z,98746.81
2022-11-16T17:07:33.681Z,98738.56
2022-11-16T17:10:02.994Z,98738.53
2022-11-16T17:12:30.915Z,98738.56
2022-11-16T17:14:58.816Z,98739.41
2022-11-16T17:17:26.771Z,98743.75
2022-11-16T17:19:54.703Z,98743.94
2022-11-16T17:22:22.682Z,98738.97
2022-11-16T17:24:50.633Z,98738.16
2022-11-16T17:27:19.941Z,98743.53
2022-11-16T17:29:47.850Z,98732.75
2022-11-16T17:32:15.754Z,98729.88
2022-11-16T17:34:43.674Z,98735.69
2022-11-16T17:37:11.624Z,98734.03
2022-11-16T17:39:39.521Z,98726.56
2022-11-16T17:42:07.526Z,98722.66
2022-11-16T17:44:36.841Z,98720.78
2022-11-16T17:47:04.805Z,98713.75
2022-11-16T17:49:32.708Z,98716.00
2022-11-16T17:52:01.726Z,98714.59
2022-11-16T17:54:29.648Z,98710.03
2022-11-16T17:56:57.583Z,98715.00
2022-11-16T17:59:29.437Z,98716.03
2022-11-16T18:01:59.325Z,98719.94
2022-11-16T18:04:27.258Z,98722.84
2022-11-16T18:06:56.044Z,98723.88
2022-11-16T18:09:24.191Z,98716.63
2022-11-16T18:11:52.130Z,98712.06
2022-11-16T18:14:20.061Z,98701.94
2022-11-16T18:16:48.035Z,98706.47
2022-11-16T18:19:18.404Z,98709.59
2022-11-16T18:21:48.166Z,98701.09
2022-11-16T18:24:16.088Z,98698.41
2022-11-16T18:26:44.080Z,98705.88
2022-11-16T18:29:15.857Z,98703.41
2022-11-16T18:31:43.896Z,98702.19
2022-11-16T18:34:13.314Z,98700.94
2022-11-16T18:36:42.692Z,98698.88
2022-11-16T18:39:10.618Z,98690.63
2022-11-16T18:41:38.619Z,98681.91
2022-11-16T18:44:07.926Z,98685.63
2022-11-16T18:46:35.850Z,98688.50
2022-11-16T18:49:03.789Z,98694.28
2022-11-16T18:51:31.903Z,98687.28
2022-11-16T18:54:01.226Z,98690.78
2022-11-16T18:56:29.135Z,98683.13
2022-11-16T18:58:57.070Z,98676.88
2022-11-16T19:01:26.231Z,98683.47
2022-11-16T19:03:54.344Z,98681.44
2022-11-16T19:06:22.245Z,98677.69
2022-11-16T19:08:56.223Z,98677.69
2022-11-16T19:11:25.996Z,98668.16
2022-11-16T19:13:54.646Z,98661.13
2022-11-16T19:16:22.691Z,98677.22
2022-11-16T19:18:50.605Z,98676.84
2022-11-16T19:21:19.414Z,98673.13
2022-11-16T19:23:48.021Z,98673.13
2022-11-16T19:26:17.084Z,98671.09
2022-11-16T19:28:47.031Z,98668.19
2022-11-16T19:31:16.040Z,98670.69
2022-11-16T19:33:44.430Z,98662.88
2022-11-16T19:36:13.265Z,98667.66
2022-11-16T19:38:41.255Z,98676.13
2022-11-16T19:41:09.206Z,98669.09
2022-11-16T19:43:37.430Z,98677.59
2022-11-16T19:46:07.971Z,98674.66
2022-11-16T19:48:35.992Z,98671.38
2022-11-16T19:51:07.782Z,98676.13
2022-11-16T19:53:36.033Z,98672.00
2022-11-16T19:56:04.356Z,98669.94
2022-11-16T19:58:33.006Z,98667.44
2022-11-16T20:01:04.098Z,98665.38
2022-11-16T20:03:33.760Z,98663.72
2022-11-16T20:06:09.824Z,98659.16
2022-11-16T20:08:37.754Z,98660.81
2022-11-16T20:11:12.025Z,98663.50
2022-11-16T20:13:39.984Z,98657.94
2022-11-16T20:16:09.607Z,98664.97
2022-11-16T20:18:38.881Z,98660.41
2022-11-16T20:21:07.444Z,98656.25
2022-11-16T20:23:35.637Z,98662.50
2022-11-16T20:26:07.292Z,98660.84
2022-11-16T20:28:36.274Z,98664.97
2022-11-16T20:31:05.397Z,98659.56
2022-11-16T20:33:34.443Z,98653.38
2022-11-16T20:36:04.443Z,98653.56
2022-11-16T20:38:33.406Z,98651.50
2022-11-16T20:41:08.865Z,98657.91
2022-11-16T20:43:39.276Z,98657.91
2022-11-16T20:46:07.575Z,98658.56
2022-11-16T20:48:35.563Z,98653.38
2022-11-16T20:51:05.150Z,98657.09
2022-11-16T20:53:33.573Z,98646.97
2022-11-16T20:56:02.566Z,98661.03
2022-11-16T20:58:30.603Z,98662.47
2022-11-16T21:01:00.888Z,98663.72
2022-11-16T21:03:29.048Z,98665.34
2022-11-16T21:05:56.974Z,98661.63
2022-11-16T21:08:26.561Z,98636.84
2022-11-16T21:10:54.501Z,98670.31
2022-11-16T21:13:39.836Z,98665.34
2022-11-16T21:16:08.632Z,98668.88
2022-11-16T21:18:36.562Z,98670.75
2022-11-16T21:21:05.571Z,98674.69
2022-11-16T21:23:35.635Z,98678.19
2022-11-16T21:26:03.942Z,98678.63
2022-11-16T21:28:31.876Z,98678.00
2022-11-16T21:31:00.421Z,98680.25
2022-11-16T21:33:28.496Z,98691.22
2022-11-16T21:35:56.426Z,98697.19
2022-11-16T21:38:25.369Z,98689.78
2022-11-16T21:40:54.690Z,98683.16
2022-11-16T21:43:22.615Z,98694.09
2022-11-16T21:45:51.108Z,98687.94
2022-11-16T21:48:19.136Z,98685.84
2022-11-16T21:50:47.071Z,98687.28
2022-11-16T21:53:15.001Z,98678.41
2022-11-16T21:55:42.921Z,98674.06
2022-11-16T21:58:12.239Z,98683.16
2022-11-16T22:00:40.156Z,98674.69
2022-11-16T22:03:08.077Z,98670.75
2022-11-16T22:05:53.531Z,98660.59
2022-11-16T22:08:21.465Z,98663.28
2022-11-16T22:10:51.025Z,98659.34
2022-11-16T22:13:20.543Z,98656.66
2022-11-16T22:15:48.510Z,98650.22
2022-11-16T22:18:16.477Z,98645.03
2022-11-16T22:20:47.826Z,98647.91
2022-11-16T22:23:21.457Z,98648.72
2022-11-16T22:25:50.631Z,98638.16
2022-11-16T22:28:21.177Z,98649.09
2022-11-16T22:30:52.027Z,98652.41
2022-11-16T22:33:20.465Z,98652.03
2022-11-16T22:35:48.405Z,98652.63
2022-11-16T22:38:16.318Z,98653.19
2022-11-16T22:40:49.903Z,98654.84
2022-11-16T22:43:17.826Z,98649.44
2022-11-16T22:45:47.136Z,98651.09
2022-11-16T22:48:15.150Z,98651.88
2022-11-16T22:50:43.159Z,98642.97
2022-11-16T22:53:11.186Z,98641.78
2022-11-16T22:55:39.308Z,98634.53
2022-11-16T22:58:07.212Z,98637.81
2022-11-16T23:00:40.678Z,98631.59
2022-11-16T23:03:11.388Z,98628.28
2022-11-16T23:05:39.337Z,98622.47
2022-11-16T23:08:07.234Z,98611.34
2022-11-16T23:10:55.265Z,98621.03
2022-11-16T23:13:40.461Z,98616.25
2022-11-16T23:16:08.890Z,98597.25
2022-11-16T23:18:38.191Z,98612.53
2022-11-16T23:21:23.552Z,98607.16
2022-11-16T23:24:20.185Z,98604.25
2022-11-16T23:27:19.832Z,98598.88
2022-11-16T23:29:47.859Z,98594.34
2022-11-16T23:32:15.822Z,98592.28
2022-11-16T23:34:45.156Z,98581.16
2022-11-16T23:37:13.077Z,98578.31
2022-11-16T23:39:41.008Z,98575.00
2022-11-16T23:42:26.579Z,98583.69
2022-11-16T23:44:54.475Z,98578.31
2022-11-16T23:47:22.400Z,98578.91
2022-11-16T23:49:51.696Z,98580.34
2022-11-16T23:52:19.600Z,98578.47
2022-11-16T23:54:47.520Z,98579.97
2022-11-16T23:57:15.462Z,98563.81
2022-11-16T23:59:43.311Z,98562.53
